createdAt,value
2022-09-23T09:12:26.883Z,8.45
2022-09-23T09:15:27.358Z,8.77
2022-09-23T09:18:01.185Z,8.07
2022-09-23T09:20:44.769Z,8.50
2022-09-23T09:23:11.562Z,8.10
2022-09-23T09:25:54.457Z,8.35
2022-09-23T09:28:38.879Z,7.75
2022-09-23T09:31:32.505Z,8.23
2022-09-23T09:34:37.284Z,8.02
2022-09-23T09:37:08.948Z,7.93
2022-09-23T09:39:36.745Z,8.23
2022-09-23T09:42:06.009Z,8.10
2022-09-23T09:44:40.328Z,8.07
2022-09-23T09:49:49.398Z,7.10
2022-09-23T09:52:26.090Z,7.75
2022-09-23T09:54:53.054Z,7.47
2022-09-23T09:57:35.166Z,7.28
2022-09-23T10:00:26.328Z,7.43
2022-09-23T10:02:55.606Z,6.72
2022-09-23T10:05:46.660Z,8.00
2022-09-23T10:08:16.549Z,6.93
2022-09-23T10:10:55.193Z,7.18
2022-09-23T10:13:26.354Z,7.00
2022-09-23T10:15:54.867Z,6.47
2022-09-23T10:18:32.367Z,6.88
2022-09-23T10:21:14.234Z,6.32
2022-09-23T10:24:03.052Z,6.75
2022-09-23T10:26:38.825Z,6.35
2022-09-23T10:29:24.221Z,7.47
2022-09-23T10:32:22.558Z,6.80
2022-09-23T10:34:53.972Z,6.43
2022-09-23T10:37:32.539Z,6.22
2022-09-23T10:40:18.784Z,5.57
2022-09-23T10:43:20.511Z,6.30
2022-09-23T10:46:08.132Z,5.45
2022-09-23T10:49:09.885Z,5.50
2022-09-23T10:51:59.806Z,5.13
2022-09-23T10:54:50.507Z,5.70
2022-09-23T10:57:51.033Z,4.93
2022-09-23T11:00:38.661Z,5.35
2022-09-23T11:03:37.008Z,5.00
2022-09-23T11:06:41.306Z,4.88
2022-09-23T11:09:31.921Z,4.97
2022-09-23T11:12:08.265Z,4.72
2022-09-23T11:14:51.537Z,4.53
2022-09-23T11:17:34.649Z,4.38
2022-09-23T11:20:16.889Z,4.70
2022-09-23T11:23:08.047Z,4.57
2022-09-23T11:26:06.974Z,4.95
2022-09-23T11:29:21.277Z,4.50
2022-09-23T11:32:14.178Z,4.82
2022-09-23T11:34:55.105Z,4.60
2022-09-23T11:37:27.778Z,5.10
2022-09-23T11:40:02.595Z,5.40
2022-09-23T11:42:35.141Z,4.68
2022-09-23T11:45:14.612Z,4.40
2022-09-23T11:47:50.018Z,4.93
2022-09-23T11:50:23.479Z,4.22
2022-09-23T11:53:16.060Z,4.32
2022-09-23T11:56:02.895Z,3.85
2022-09-23T11:58:37.864Z,3.47
2022-09-23T12:01:48.299Z,3.78
2022-09-23T12:04:31.231Z,3.58
2022-09-23T12:07:10.950Z,4.13
2022-09-23T12:09:58.231Z,4.00
2022-09-23T12:12:47.688Z,3.78
2022-09-23T12:15:47.777Z,3.65
2022-09-23T12:18:53.855Z,3.40
2022-09-23T12:21:49.631Z,3.25
2022-09-23T12:25:02.177Z,3.40
2022-09-23T12:27:45.991Z,3.65
2022-09-23T12:30:22.736Z,3.47
2022-09-23T12:35:48.937Z,3.17
2022-09-23T12:38:36.773Z,3.17
2022-09-23T12:41:27.785Z,3.00
2022-09-23T12:44:50.641Z,2.90
2022-09-23T12:47:28.136Z,2.67
2022-09-23T12:49:59.182Z,3.05
2022-09-23T12:52:35.531Z,3.00
2022-09-23T12:55:22.246Z,3.00
2022-09-23T12:57:49.193Z,3.17
2022-09-23T13:00:34.402Z,3.28
2022-09-23T13:06:20.268Z,3.20
2022-09-23T13:08:50.496Z,3.38
2022-09-23T13:11:25.030Z,2.67
2022-09-23T13:13:58.817Z,2.83
2022-09-23T13:16:43.332Z,2.65
2022-09-23T13:19:38.604Z,2.70
2022-09-23T13:22:11.574Z,3.22
2022-09-23T13:25:19.478Z,2.95
2022-09-23T13:30:31.185Z,3.28
2022-09-23T13:33:20.045Z,3.15
2022-09-23T13:35:53.349Z,3.20
2022-09-23T13:38:28.070Z,3.20
2022-09-23T13:41:14.533Z,3.20
2022-09-23T13:43:48.176Z,3.20
2022-09-23T13:46:24.744Z,3.70
2022-09-23T13:49:04.802Z,3.35
2022-09-23T13:51:39.355Z,3.47
2022-09-23T13:56:52.086Z,3.72
2022-09-23T13:59:30.156Z,3.53
2022-09-23T14:02:52.861Z,3.15
2022-09-23T14:05:26.410Z,3.67
2022-09-23T14:07:57.278Z,4.35
2022-09-23T14:10:27.792Z,4.00
2022-09-23T14:12:57.385Z,4.38
2022-09-23T14:15:26.576Z,4.00
2022-09-23T14:18:06.461Z,4.40
2022-09-23T14:20:47.712Z,4.32
2022-09-23T14:23:14.864Z,5.18
2022-09-23T14:25:44.568Z,5.18
2022-09-23T14:28:20.426Z,5.45
2022-09-23T14:30:53.098Z,5.18
2022-09-23T14:33:35.948Z,4.85
2022-09-23T14:36:08.915Z,5.20
2022-09-23T14:38:51.019Z,4.72
2022-09-23T14:41:26.264Z,4.43
2022-09-23T14:44:00.159Z,5.40
2022-09-23T14:46:29.662Z,5.38
2022-09-23T14:49:04.822Z,5.47
2022-09-23T14:51:35.849Z,5.43
2022-09-23T14:54:52.967Z,6.13
2022-09-23T14:57:22.682Z,5.90
2022-09-23T15:00:08.882Z,5.03
2022-09-23T15:02:42.370Z,5.45
2022-09-23T15:05:20.779Z,5.00
2022-09-23T15:07:53.368Z,5.13
2022-09-23T15:10:23.887Z,4.95
2022-09-23T15:12:53.081Z,4.80
2022-09-23T15:15:24.262Z,4.97
2022-09-23T15:17:51.301Z,5.38
2022-09-23T15:20:26.627Z,5.35
2022-09-23T15:22:58.194Z,5.30
2022-09-23T15:25:40.181Z,5.38
2022-09-23T15:28:10.083Z,5.00
2022-09-23T15:30:38.257Z,6.18
2022-09-23T15:33:18.820Z,5.68
2022-09-23T15:35:48.550Z,5.80
2022-09-23T15:38:20.492Z,6.03
2022-09-23T15:40:48.751Z,6.25
2022-09-23T15:43:26.184Z,6.15
2022-09-23T15:46:01.134Z,6.60
2022-09-23T15:48:38.832Z,6.30
2022-09-23T15:51:08.105Z,5.78
2022-09-23T15:53:38.422Z,6.18
2022-09-23T15:56:08.643Z,6.20
2022-09-23T15:58:38.760Z,6.15
2022-09-23T16:01:06.392Z,5.93
2022-09-23T16:03:38.282Z,6.05
2022-09-23T16:06:23.778Z,6.55
2022-09-23T16:08:52.356Z,6.32
2022-09-23T16:11:26.473Z,6.53
2022-09-23T16:16:32.107Z,6.53
2022-09-23T16:19:35.732Z,6.93
2022-09-23T16:22:06.874Z,7.25
2022-09-23T16:24:36.487Z,7.78
2022-09-23T16:27:07.881Z,7.78
2022-09-23T16:30:02.939Z,7.53
2022-09-23T16:32:29.994Z,10.63
2022-09-23T16:35:07.368Z,18.73
2022-09-23T16:37:40.166Z,12.80
2022-09-23T16:40:19.028Z,10.48
2022-09-23T16:42:56.050Z,13.48
2022-09-23T16:45:24.368Z,10.55
2022-09-23T16:47:52.016Z,13.18
2022-09-23T16:50:22.599Z,9.85
2022-09-23T16:52:51.738Z,9.25
2022-09-23T16:55:18.442Z,8.63
2022-09-23T16:57:45.117Z,9.13
2022-09-23T17:00:47.942Z,9.60
2022-09-23T17:03:33.519Z,9.38
2022-09-23T17:06:03.397Z,8.80
2022-09-23T17:08:33.205Z,8.38
2022-09-23T17:11:00.844Z,9.57
2022-09-23T17:13:28.646Z,8.50
2022-09-23T17:15:55.752Z,9.38
2022-09-23T17:18:27.135Z,10.27
2022-09-23T17:21:11.717Z,9.35
2022-09-23T17:23:38.695Z,9.13
2022-09-23T17:26:05.993Z,10.05
2022-09-23T17:28:32.647Z,9.20
2022-09-23T17:31:01.963Z,9.02
2022-09-23T17:33:30.337Z,9.63
2022-09-23T17:35:57.274Z,9.55
2022-09-23T17:38:28.693Z,10.10
2022-09-23T17:40:59.036Z,9.45
2022-09-23T17:43:25.986Z,9.43
2022-09-23T17:45:54.470Z,9.77
2022-09-23T17:48:24.640Z,10.00
2022-09-23T17:50:59.037Z,9.95
2022-09-23T17:53:26.258Z,9.70
2022-09-23T17:55:57.125Z,9.85
2022-09-23T17:58:28.438Z,10.18
2022-09-23T18:00:56.101Z,9.70
2022-09-23T18:03:24.589Z,9.98
2022-09-23T18:05:51.994Z,9.30
2022-09-23T18:08:19.070Z,10.18
2022-09-23T18:10:45.979Z,11.05
2022-09-23T18:13:13.130Z,11.52
2022-09-23T18:15:40.378Z,10.35
2022-09-23T18:18:07.213Z,10.48
2022-09-23T18:20:34.077Z,10.52
2022-09-23T18:23:03.327Z,9.82
2022-09-23T18:25:40.904Z,10.90
2022-09-23T18:28:07.691Z,10.65
2022-09-23T18:30:34.655Z,11.05
2022-09-23T18:33:02.374Z,12.27
2022-09-23T18:35:29.458Z,12.40
2022-09-23T18:37:56.161Z,12.30
2022-09-23T18:40:23.018Z,11.55
2022-09-23T18:42:50.244Z,11.40
2022-09-23T18:45:19.342Z,11.60
2022-09-23T18:48:04.642Z,13.23
2022-09-23T18:50:40.497Z,12.75
2022-09-23T18:53:08.239Z,13.95
2022-09-23T18:55:36.166Z,12.65
2022-09-23T18:58:03.072Z,13.15
2022-09-23T19:00:31.054Z,13.68
2022-09-23T19:02:57.765Z,14.25
2022-09-23T19:05:24.408Z,14.75
2022-09-23T19:07:51.479Z,13.52
2022-09-23T19:10:19.581Z,12.95
2022-09-23T19:12:46.700Z,12.73
2022-09-23T19:15:14.750Z,15.75
2022-09-23T19:17:41.481Z,16.27
2022-09-23T19:20:09.458Z,13.45
2022-09-23T19:22:36.122Z,13.23
2022-09-23T19:25:02.859Z,13.77
2022-09-23T19:27:29.637Z,14.48
2022-09-23T19:29:56.847Z,12.20
2022-09-23T19:32:27.053Z,12.65
2022-09-23T19:34:53.757Z,13.25
2022-09-23T19:37:20.977Z,14.25
2022-09-23T19:39:47.859Z,14.98
2022-09-23T19:42:14.712Z,14.65
2022-09-23T19:44:41.472Z,13.05
2022-09-23T19:47:15.324Z,13.93
2022-09-23T19:49:42.949Z,17.02
2022-09-23T19:52:09.664Z,15.05
2022-09-23T19:54:37.189Z,15.60
2022-09-23T19:57:03.961Z,15.52
2022-09-23T19:59:31.017Z,16.85
2022-09-23T20:01:57.885Z,14.73
2022-09-23T20:04:24.987Z,16.40
2022-09-23T20:06:51.727Z,13.25
2022-09-23T20:09:18.434Z,13.20
2022-09-23T20:11:45.495Z,12.80
2022-09-23T20:14:12.872Z,13.10
2022-09-23T20:16:40.319Z,13.40
2022-09-23T20:19:06.944Z,13.02
2022-09-23T20:21:34.436Z,12.85
2022-09-23T20:24:01.625Z,12.57
2022-09-23T20:26:47.135Z,12.55
2022-09-23T20:29:13.890Z,12.73
2022-09-23T20:31:41.071Z,12.20
2022-09-23T20:34:09.150Z,12.70
2022-09-23T20:36:36.235Z,11.50
2022-09-23T20:39:05.931Z,12.35
2022-09-23T20:41:36.789Z,12.50
2022-09-23T20:44:06.262Z,12.27
2022-09-23T20:46:33.253Z,11.95
2022-09-23T20:49:00.192Z,12.80
2022-09-23T20:51:26.814Z,12.70
2022-09-23T20:53:53.384Z,13.18
2022-09-23T20:56:21.427Z,12.80
2022-09-23T20:58:48.612Z,12.48
2022-09-23T21:01:16.081Z,12.68
2022-09-23T21:03:44.893Z,12.55
2022-09-23T21:06:14.182Z,13.13
2022-09-23T21:08:41.590Z,12.45
2022-09-23T21:11:12.405Z,13.75
2022-09-23T21:13:39.295Z,12.82
2022-09-23T21:16:09.745Z,13.68
2022-09-23T21:18:37.307Z,12.93
2022-09-23T21:21:05.386Z,12.93
2022-09-23T21:23:34.504Z,13.55
2022-09-23T21:26:06.013Z,13.10
2022-09-23T21:28:34.977Z,13.38
2022-09-23T21:31:03.331Z,13.65
2022-09-23T21:33:33.112Z,12.77
2022-09-23T21:36:04.153Z,13.65
2022-09-23T21:38:33.533Z,13.38
2022-09-23T21:41:01.838Z,14.98
2022-09-23T21:43:33.170Z,14.77
2022-09-23T21:46:02.365Z,15.07
2022-09-23T21:48:30.345Z,14.35
2022-09-23T21:51:05.656Z,15.38
2022-09-23T21:53:33.797Z,14.55
2022-09-23T21:56:06.230Z,15.05
2022-09-23T21:58:34.410Z,15.07
2022-09-23T22:01:06.196Z,15.55
2022-09-23T22:03:32.981Z,16.55
2022-09-23T22:06:05.794Z,15.57
2022-09-23T22:08:36.832Z,16.40
2022-09-23T22:11:33.499Z,16.17
2022-09-23T22:14:02.379Z,16.52
2022-09-23T22:16:29.782Z,15.88
2022-09-23T22:18:58.612Z,17.35
2022-09-23T22:21:27.706Z,17.48
2022-09-23T22:24:02.689Z,16.00
2022-09-23T22:26:32.590Z,17.70
2022-09-23T22:29:38.151Z,17.00
2022-09-23T22:32:28.905Z,17.08
2022-09-23T22:34:56.137Z,17.42
2022-09-23T22:37:30.220Z,17.73
2022-09-23T22:39:56.935Z,17.77
2022-09-23T22:42:23.722Z,17.60
2022-09-23T22:44:51.390Z,17.33
2022-09-23T22:47:19.462Z,18.50
2022-09-23T22:49:46.745Z,18.67
2022-09-23T22:52:15.920Z,18.30
2022-09-23T22:54:43.233Z,19.08
2022-09-23T22:57:10.098Z,19.60
